Terminal Aerodrome Forecast
Issued by NWS Tallahassee, FL

Home | Current Version | Previous Version | Text Only | Print | Product List | Glossary On
Versions: 1 2 3 4 5 6 7 8 9 10 11 12 13 14 15
280
FTUS42 KTAE 242337
TAFTLH
TAF
KTLH 242337Z 2500/2524 19011KT P6SM SCT060
     FM250200 00000KT P6SM FEW060
     FM251000 00000KT P6SM BKN015
     FM251500 25007KT P6SM -TSRA BKN050CB=

USA.gov is the U.S. government's official web portal to all federal, state and local government web resources and services.